CheckWX is a tool to help pilots better visualize weather data.  It is not intended as a substitute for an official pre-flight weather briefing.

14:49:59 UTC

RKSG TAF
A 511 Airport
South Korea
TAF AMD RKSG 211146Z 2111/2217 09006KT 9000 HZ SCT050 BKN080 620804 QNH3042INS BECMG 2114/2115 10006KT 9000 HZ SCT090 BKN120 QNH3040INS BECMG 2123/2124 08006KT 8000 HZ SCT120 QNH3038INS BECMG 2202/2203 09006KT 9999 NSW SKC QNH3036INS BECMG 2208/2209 10006KT 9000 HZ SCT030 QNH3030INS TX13/2206Z TN04/2121Z

Nov-21@
11:00 UTC

Nov-21 @ 11:00 UTC

Nov-21@
14:00 UTC

Nov-21 @ 14:00 UTC

TAF AMD RKSG 211146Z 2111/2217 09006KT 9000 HZ SCT050 BKN080 620804 QNH3042INS

Expired

Wind
  • 090° at 6 KTS
Conditions
Haze
Cloud Levels
  • Scattered at 5,000' AGL
  • Broken at 8,000' AGL
Icing
Light icing in cloud expected at 8,000' AGL extending to 12,000' AGL

Nov-21@
14:00 UTC

Nov-21 @ 14:00 UTC

Nov-21@
23:00 UTC

Nov-21 @ 23:00 UTC

BECMG 2114/2115 10006KT 9000 HZ SCT090 BKN120 QNH3040INS

Becoming

Becoming Conditions expected by Thu, Nov 21, 2019 @ 15:00 UTC

Wind
  • 100° at 6 KTS
Conditions
Haze
Cloud Levels
  • Scattered at 9,000' AGL
  • Broken at 12,000' AGL

Nov-21@
23:00 UTC

Nov-21 @ 23:00 UTC

Nov-22@
02:00 UTC

Nov-22 @ 02:00 UTC

BECMG 2123/2124 08006KT 8000 HZ SCT120 QNH3038INS

Becoming

Becoming Conditions expected by Fri, Nov 22, 2019 @ 00:00 UTC

Wind
  • 080° at 6 KTS
Conditions
Haze
Cloud Levels
  • Scattered at 12,000' AGL

Nov-22@
02:00 UTC

Nov-22 @ 02:00 UTC

Nov-22@
08:00 UTC

Nov-22 @ 08:00 UTC

BECMG 2202/2203 09006KT 9999 NSW SKC QNH3036INS

Becoming

Becoming Conditions expected by Fri, Nov 22, 2019 @ 03:00 UTC

Wind
  • 090° at 6 KTS
Conditions
No significant weather
Cloud Levels
  • Clear skies

Nov-22@
08:00 UTC

Nov-22 @ 08:00 UTC

Nov-22@
17:00 UTC

Nov-22 @ 17:00 UTC

BECMG 2208/2209 10006KT 9000 HZ SCT030 QNH3030INS TX13/2206Z TN04/2121Z

Becoming

Becoming Conditions expected by Fri, Nov 22, 2019 @ 09:00 UTC

Wind
  • 100° at 6 KTS
Conditions
Haze
Cloud Levels
  • Scattered at 3,000' AGL